Cowling, Illinois
Current Conditions -  °F | °C
As of 2:55 PM on Tuesday 21 Oct 2014 (Local Time) from KAJG Reporting Station
Broken Clouds Broken Clouds  
Wind Chill: 64°   Ceiling: 4700
Heat Index: 64°   Visibility: 10mi
Dew Point: 41°   Wind: 14mph
Humidity: 42%   Direction: 10°N
Pressure: 30.09"   Gusts: 18mph
Location:  38.4145°N, 87.8638°W
Report Text: KAJG 211955Z AUTO 01012G16KT 10SM BKN047 18/05 A3009 RMK AO2
Loading
Personal Weather Stations






























Interactive Weather Map
Tropical Storm Tracking
New forecast layout! Learn more

10-Day Weather Forecast

Advertisements
Track Severe Weather on mobile